sensor_id;sensor_type;location;lat;lon;timestamp;temperature;humidity
66610;DHT22;53468;48.276;14.416;2023-06-10T00:03:51;15.40;99.90
66610;DHT22;53468;48.276;14.416;2023-06-10T00:21:24;15.30;99.90
66610;DHT22;53468;48.276;14.416;2023-06-10T00:26:50;15.30;99.90
66610;DHT22;53468;48.276;14.416;2023-06-10T00:32:13;15.30;99.90
66610;DHT22;53468;48.276;14.416;2023-06-10T00:43:20;15.10;99.90
66610;DHT22;53468;48.276;14.416;2023-06-10T00:49:16;15.10;99.90
66610;DHT22;53468;48.276;14.416;2023-06-10T00:55:02;15.00;99.90
66610;DHT22;53468;48.276;14.416;2023-06-10T01:01:22;15.10;99.90
66610;DHT22;53468;48.276;14.416;2023-06-10T01:08:03;15.10;99.90
66610;DHT22;53468;48.276;14.416;2023-06-10T01:13:49;15.10;99.90
66610;DHT22;53468;48.276;14.416;2023-06-10T01:25:58;15.10;99.90
66610;DHT22;53468;48.276;14.416;2023-06-10T01:31:23;15.10;99.90
66610;DHT22;53468;48.276;14.416;2023-06-10T01:37:13;15.20;99.90
66610;DHT22;53468;48.276;14.416;2023-06-10T01:48:49;15.10;99.90
66610;DHT22;53468;48.276;14.416;2023-06-10T01:54:30;15.00;99.90
66610;DHT22;53468;48.276;14.416;2023-06-10T02:00:24;14.90;99.90
66610;DHT22;53468;48.276;14.416;2023-06-10T02:06:33;14.90;99.90
66610;DHT22;53468;48.276;14.416;2023-06-10T02:12:29;14.80;99.90
66610;DHT22;53468;48.276;14.416;2023-06-10T02:18:00;14.90;99.90
66610;DHT22;53468;48.276;14.416;2023-06-10T02:23:40;14.80;99.90
66610;DHT22;53468;48.276;14.416;2023-06-10T02:29:14;14.70;99.90
66610;DHT22;53468;48.276;14.416;2023-06-10T02:34:39;14.80;99.90
66610;DHT22;53468;48.276;14.416;2023-06-10T02:40:46;14.80;99.90
66610;DHT22;53468;48.276;14.416;2023-06-10T02:46:34;14.70;99.90
66610;DHT22;53468;48.276;14.416;2023-06-10T02:52:55;14.70;99.90
66610;DHT22;53468;48.276;14.416;2023-06-10T02:58:46;14.60;99.90
66610;DHT22;53468;48.276;14.416;2023-06-10T03:04:04;14.50;99.90
66610;DHT22;53468;48.276;14.416;2023-06-10T03:21:26;14.40;99.90
66610;DHT22;53468;48.276;14.416;2023-06-10T03:26:47;14.20;99.90
66610;DHT22;53468;48.276;14.416;2023-06-10T03:32:55;14.20;99.90
66610;DHT22;53468;48.276;14.416;2023-06-10T03:44:51;14.30;99.90
66610;DHT22;53468;48.276;14.416;2023-06-10T03:50:13;14.50;99.90
66610;DHT22;53468;48.276;14.416;2023-06-10T03:56:02;14.60;99.90
66610;DHT22;53468;48.276;14.416;2023-06-10T04:01:46;14.70;99.90
66610;DHT22;53468;48.276;14.416;2023-06-10T04:07:44;14.80;99.90
66610;DHT22;53468;48.276;14.416;2023-06-10T04:13:26;15.00;99.90
66610;DHT22;53468;48.276;14.416;2023-06-10T04:30:49;15.40;99.90
66610;DHT22;53468;48.276;14.416;2023-06-10T04:36:32;15.60;99.90
66610;DHT22;53468;48.276;14.416;2023-06-10T07:12:16;20.70;99.90
66610;DHT22;53468;48.276;14.416;2023-06-10T07:17:29;20.80;99.90
66610;DHT22;53468;48.276;14.416;2023-06-10T07:23:16;20.90;99.90
66610;DHT22;53468;48.276;14.416;2023-06-10T07:28:47;21.30;99.90
66610;DHT22;53468;48.276;14.416;2023-06-10T07:33:51;21.30;99.90
66610;DHT22;53468;48.276;14.416;2023-06-10T07:38:54;21.20;99.90
66610;DHT22;53468;48.276;14.416;2023-06-10T07:43:59;21.50;99.90
66610;DHT22;53468;48.276;14.416;2023-06-10T07:49:02;21.60;99.90
66610;DHT22;53468;48.276;14.416;2023-06-10T07:54:05;22.30;99.90
66610;DHT22;53468;48.276;14.416;2023-06-10T07:59:09;22.60;99.90
66610;DHT22;53468;48.276;14.416;2023-06-10T08:04:12;23.00;99.90
66610;DHT22;53468;48.276;14.416;2023-06-10T08:09:14;23.40;99.90
66610;DHT22;53468;48.276;14.416;2023-06-10T08:14:18;23.60;99.90
66610;DHT22;53468;48.276;14.416;2023-06-10T08:19:21;23.60;99.90
66610;DHT22;53468;48.276;14.416;2023-06-10T08:24:24;23.80;99.90
66610;DHT22;53468;48.276;14.416;2023-06-10T08:29:28;23.90;99.90
66610;DHT22;53468;48.276;14.416;2023-06-10T08:34:34;24.00;99.90
66610;DHT22;53468;48.276;14.416;2023-06-10T08:39:42;24.30;99.90
66610;DHT22;53468;48.276;14.416;2023-06-10T08:45:00;24.10;99.90
66610;DHT22;53468;48.276;14.416;2023-06-10T08:50:38;24.00;99.90
66610;DHT22;53468;48.276;14.416;2023-06-10T08:55:42;24.20;99.90
66610;DHT22;53468;48.276;14.416;2023-06-10T09:01:07;24.20;99.90
66610;DHT22;53468;48.276;14.416;2023-06-10T09:06:11;24.40;99.90
66610;DHT22;53468;48.276;14.416;2023-06-10T09:11:16;24.50;99.90
66610;DHT22;53468;48.276;14.416;2023-06-10T09:16:26;24.70;99.90
66610;DHT22;53468;48.276;14.416;2023-06-10T09:21:31;24.30;99.90
66610;DHT22;53468;48.276;14.416;2023-06-10T09:26:35;24.70;99.90
66610;DHT22;53468;48.276;14.416;2023-06-10T09:31:45;25.00;99.90
66610;DHT22;53468;48.276;14.416;2023-06-10T09:36:49;24.90;99.90
66610;DHT22;53468;48.276;14.416;2023-06-10T09:41:55;25.10;99.90
66610;DHT22;53468;48.276;14.416;2023-06-10T09:47:03;25.10;99.90
66610;DHT22;53468;48.276;14.416;2023-06-10T09:52:10;25.20;99.90
66610;DHT22;53468;48.276;14.416;2023-06-10T09:57:14;25.20;99.90
66610;DHT22;53468;48.276;14.416;2023-06-10T10:02:25;24.90;99.90
66610;DHT22;53468;48.276;14.416;2023-06-10T10:07:29;25.20;99.90
66610;DHT22;53468;48.276;14.416;2023-06-10T10:12:35;25.40;99.90
66610;DHT22;53468;48.276;14.416;2023-06-10T10:17:53;25.90;99.90
66610;DHT22;53468;48.276;14.416;2023-06-10T10:23:03;25.80;99.90
66610;DHT22;53468;48.276;14.416;2023-06-10T10:28:13;25.90;99.90
66610;DHT22;53468;48.276;14.416;2023-06-10T10:33:48;25.50;99.90
66610;DHT22;53468;48.276;14.416;2023-06-10T10:39:12;25.90;99.90
66610;DHT22;53468;48.276;14.416;2023-06-10T10:44:18;26.00;99.90
66610;DHT22;53468;48.276;14.416;2023-06-10T10:49:26;25.70;99.90
66610;DHT22;53468;48.276;14.416;2023-06-10T10:54:32;24.80;99.90
66610;DHT22;53468;48.276;14.416;2023-06-10T11:00:25;23.80;99.90
66610;DHT22;53468;48.276;14.416;2023-06-10T11:05:43;23.00;99.90
66610;DHT22;53468;48.276;14.416;2023-06-10T11:10:52;23.00;99.90
66610;DHT22;53468;48.276;14.416;2023-06-10T11:15:58;23.00;99.90
66610;DHT22;53468;48.276;14.416;2023-06-10T11:27:24;23.80;99.90
66610;DHT22;53468;48.276;14.416;2023-06-10T11:32:31;24.10;99.90
66610;DHT22;53468;48.276;14.416;2023-06-10T11:37:34;24.50;99.90
66610;DHT22;53468;48.276;14.416;2023-06-10T11:42:42;24.80;99.90
66610;DHT22;53468;48.276;14.416;2023-06-10T11:47:57;24.70;99.90
66610;DHT22;53468;48.276;14.416;2023-06-10T11:53:04;24.70;99.90
66610;DHT22;53468;48.276;14.416;2023-06-10T11:58:14;25.30;99.90
66610;DHT22;53468;48.276;14.416;2023-06-10T12:03:16;24.80;99.90
66610;DHT22;53468;48.276;14.416;2023-06-10T12:08:19;24.70;99.90
66610;DHT22;53468;48.276;14.416;2023-06-10T12:13:27;23.90;99.90
66610;DHT22;53468;48.276;14.416;2023-06-10T12:18:30;23.60;99.90
66610;DHT22;53468;48.276;14.416;2023-06-10T12:23:33;23.10;99.90
66610;DHT22;53468;48.276;14.416;2023-06-10T12:28:37;22.70;99.90
66610;DHT22;53468;48.276;14.416;2023-06-10T12:33:39;22.50;99.90
66610;DHT22;53468;48.276;14.416;2023-06-10T12:38:42;22.20;99.90
66610;DHT22;53468;48.276;14.416;2023-06-10T12:43:46;22.00;99.90
66610;DHT22;53468;48.276;14.416;2023-06-10T12:48:51;21.90;99.90
66610;DHT22;53468;48.276;14.416;2023-06-10T12:53:55;21.70;99.90
66610;DHT22;53468;48.276;14.416;2023-06-10T12:58:58;21.30;99.90
66610;DHT22;53468;48.276;14.416;2023-06-10T13:04:00;21.10;99.90
66610;DHT22;53468;48.276;14.416;2023-06-10T13:09:03;20.80;99.90
66610;DHT22;53468;48.276;14.416;2023-06-10T13:14:11;20.40;99.90
66610;DHT22;53468;48.276;14.416;2023-06-10T13:19:13;20.10;99.90
66610;DHT22;53468;48.276;14.416;2023-06-10T13:24:16;20.10;99.90
66610;DHT22;53468;48.276;14.416;2023-06-10T13:29:19;20.10;99.90
66610;DHT22;53468;48.276;14.416;2023-06-10T13:34:24;20.10;99.90
66610;DHT22;53468;48.276;14.416;2023-06-10T13:39:27;20.10;99.90
66610;DHT22;53468;48.276;14.416;2023-06-10T13:44:31;20.00;99.90
66610;DHT22;53468;48.276;14.416;2023-06-10T13:49:34;20.20;99.90
66610;DHT22;53468;48.276;14.416;2023-06-10T13:54:38;20.30;99.90
66610;DHT22;53468;48.276;14.416;2023-06-10T13:59:42;20.40;99.90
66610;DHT22;53468;48.276;14.416;2023-06-10T14:04:45;20.70;99.90
66610;DHT22;53468;48.276;14.416;2023-06-10T14:09:47;20.90;99.90
66610;DHT22;53468;48.276;14.416;2023-06-10T14:14:51;21.10;99.90
66610;DHT22;53468;48.276;14.416;2023-06-10T14:19:53;21.30;99.90
66610;DHT22;53468;48.276;14.416;2023-06-10T14:24:55;21.50;99.90
66610;DHT22;53468;48.276;14.416;2023-06-10T14:29:59;21.70;99.90
66610;DHT22;53468;48.276;14.416;2023-06-10T14:35:01;22.00;99.90
66610;DHT22;53468;48.276;14.416;2023-06-10T14:40:04;22.20;99.90
66610;DHT22;53468;48.276;14.416;2023-06-10T14:45:10;22.30;99.90
66610;DHT22;53468;48.276;14.416;2023-06-10T14:50:12;22.20;99.90
66610;DHT22;53468;48.276;14.416;2023-06-10T14:55:15;22.40;99.90
66610;DHT22;53468;48.276;14.416;2023-06-10T15:00:19;22.60;99.90
66610;DHT22;53468;48.276;14.416;2023-06-10T15:05:23;22.40;99.90
66610;DHT22;53468;48.276;14.416;2023-06-10T15:10:26;22.40;99.90
66610;DHT22;53468;48.276;14.416;2023-06-10T15:15:29;22.60;99.90
66610;DHT22;53468;48.276;14.416;2023-06-10T15:20:31;22.50;99.90
66610;DHT22;53468;48.276;14.416;2023-06-10T15:25:33;22.40;99.90
66610;DHT22;53468;48.276;14.416;2023-06-10T15:30:37;22.30;99.90
66610;DHT22;53468;48.276;14.416;2023-06-10T15:35:40;22.30;99.90
66610;DHT22;53468;48.276;14.416;2023-06-10T15:40:42;22.10;99.90
66610;DHT22;53468;48.276;14.416;2023-06-10T15:45:45;22.10;99.90
66610;DHT22;53468;48.276;14.416;2023-06-10T15:50:47;21.80;99.90
66610;DHT22;53468;48.276;14.416;2023-06-10T15:55:49;21.70;99.90
66610;DHT22;53468;48.276;14.416;2023-06-10T16:00:53;21.50;99.90
66610;DHT22;53468;48.276;14.416;2023-06-10T16:05:55;21.30;99.90
66610;DHT22;53468;48.276;14.416;2023-06-10T16:11:04;21.20;99.90
66610;DHT22;53468;48.276;14.416;2023-06-10T16:22:00;20.90;99.90
66610;DHT22;53468;48.276;14.416;2023-06-10T16:27:09;20.80;99.90
66610;DHT22;53468;48.276;14.416;2023-06-10T16:32:45;20.70;99.90
66610;DHT22;53468;48.276;14.416;2023-06-10T16:37:50;20.60;99.90
66610;DHT22;53468;48.276;14.416;2023-06-10T16:42:55;20.50;99.90
66610;DHT22;53468;48.276;14.416;2023-06-10T16:48:01;20.50;99.90
66610;DHT22;53468;48.276;14.416;2023-06-10T16:53:22;20.30;99.90
66610;DHT22;53468;48.276;14.416;2023-06-10T16:58:27;20.40;99.90
66610;DHT22;53468;48.276;14.416;2023-06-10T17:03:34;20.50;99.90
66610;DHT22;53468;48.276;14.416;2023-06-10T17:08:49;20.50;99.90
66610;DHT22;53468;48.276;14.416;2023-06-10T17:13:53;20.50;99.90
66610;DHT22;53468;48.276;14.416;2023-06-10T17:18:57;20.60;99.90
66610;DHT22;53468;48.276;14.416;2023-06-10T17:24:08;20.60;99.90
66610;DHT22;53468;48.276;14.416;2023-06-10T17:29:11;20.50;99.90
66610;DHT22;53468;48.276;14.416;2023-06-10T17:34:28;20.40;99.90
66610;DHT22;53468;48.276;14.416;2023-06-10T17:39:56;20.40;99.90
66610;DHT22;53468;48.276;14.416;2023-06-10T17:45:02;20.30;99.90
66610;DHT22;53468;48.276;14.416;2023-06-10T17:50:07;20.30;99.90
66610;DHT22;53468;48.276;14.416;2023-06-10T17:55:24;20.20;99.90
66610;DHT22;53468;48.276;14.416;2023-06-10T21:07:23;17.60;99.90
66610;DHT22;53468;48.276;14.416;2023-06-10T21:12:49;17.60;99.90
66610;DHT22;53468;48.276;14.416;2023-06-10T22:11:34;17.10;99.90
66610;DHT22;53468;48.276;14.416;2023-06-10T22:17:35;17.00;99.90
66610;DHT22;53468;48.276;14.416;2023-06-10T22:23:44;16.90;99.90
66610;DHT22;53468;48.276;14.416;2023-06-10T22:47:03;16.70;99.90
66610;DHT22;53468;48.276;14.416;2023-06-10T22:52:47;16.60;99.90
66610;DHT22;53468;48.276;14.416;2023-06-10T22:58:19;16.50;99.90
66610;DHT22;53468;48.276;14.416;2023-06-10T23:10:01;16.40;99.90
66610;DHT22;53468;48.276;14.416;2023-06-10T23:15:30;16.30;99.90
66610;DHT22;53468;48.276;14.416;2023-06-10T23:26:38;16.10;99.90
66610;DHT22;53468;48.276;14.416;2023-06-10T23:32:29;16.00;99.90
66610;DHT22;53468;48.276;14.416;2023-06-10T23:38:11;16.00;99.90
66610;DHT22;53468;48.276;14.416;2023-06-10T23:43:51;15.90;99.90
66610;DHT22;53468;48.276;14.416;2023-06-10T23:49:18;15.90;99.90
